Latest Weather Observations for Omeo

IDV60801

Issued at 2:02 pm EST Monday 25 July 2016 (issued every 30 minutes, with the page automatically refreshed every 10 minutes)

About weather observations | Map of weather stations | Latest weather observations for VIC | Other Formats
Station Details ID: 083090 Name: OMEO Lat: -37.10 Lon: 147.60 Height: 689.8 m
Data from the previous 72 hours. | See also: Recent months at Omeo
Date/Time
EST
Temp
°C
App
Temp
°C
Dew
Point
°C
Rel
Hum
%
Delta-T
°C
Wind Press
QNH
hPa
Press
MSL
hPa
Rain since
9am
mm
Dir  Spd
km/h
Gust
km/h
Spd
kts
Gust
kts
25/02:00pm 7.0 0.9 2.7 74 1.9 N 24 35 13 19 1007.5 1008.5 0.0
25/01:30pm 7.4 0.6 3.1 74 1.9 N 28 37 15 20 1007.8 1008.8 0.0
25/01:01pm 7.6 -0.1 2.3 69 2.3 N 32 50 17 27 1008.0 1009.0 0.0
25/01:00pm 7.8 0.9 2.5 69 2.3 N 28 44 15 24 1008.0 1009.0 0.0
25/12:30pm 8.2 1.3 2.7 68 2.4 N 28 41 15 22 1008.3 1009.3 0.0
25/12:00pm 7.7 1.2 2.8 71 2.2 N 26 37 14 20 1008.6 1009.7 0.0
25/11:30am 6.5 0.4 2.9 78 1.6 N 24 35 13 19 1009.0 1010.0 0.0
25/11:00am 5.6 -0.6 2.3 79 1.4 N 24 37 13 20 1009.4 1010.4 0.0
25/10:30am 6.2 0.1 2.7 78 1.5 N 24 37 13 20 1009.3 1010.3 0.0
25/10:00am 5.2 -1.0 1.9 79 1.4 N 24 37 13 20 1009.4 1010.4 0.0
25/09:30am 4.8 -1.8 1.8 81 1.2 N 26 35 14 19 1009.3 1010.3 0.0
25/09:00am 4.1 -1.1 2.3 88 0.8 NNW 19 28 10 15 1009.2 1010.2 0.4
25/08:30am 3.0 -2.6 1.4 89 0.6 N 20 28 11 15 1009.0 1010.0 0.4
25/08:00am 2.3 -3.1 1.4 94 0.4 N 19 28 10 15 1008.8 1009.8 0.4
25/07:30am 1.6 -2.7 1.2 97 0.2 NNW 13 19 7 10 1008.3 1009.3 0.4
25/07:00am 1.4 -3.3 0.8 96 0.2 N 15 22 8 12 1007.7 1008.7 0.4
25/06:30am 1.5 -3.6 0.8 95 0.3 N 17 20 9 11 1007.6 1008.6 0.4
25/06:00am 1.1 -3.3 0.5 96 0.2 NNW 13 17 7 9 1007.0 1008.0 0.4
25/05:30am 1.2 -3.2 0.6 96 0.2 NNW 13 20 7 11 1006.6 1007.6 0.2
25/05:00am 1.2 -3.1 0.8 97 0.2 N 13 19 7 10 1006.5 1007.5 0.2
25/04:30am 1.6 -3.1 1.0 96 0.2 N 15 19 8 10 1006.3 1007.3 0.2
25/04:00am 1.6 -2.8 0.6 93 0.4 N 13 17 7 9 1006.0 1006.9 0.2
25/03:30am 1.9 -3.2 0.7 92 0.5 N 17 28 9 15 1005.8 1006.7 0.2
25/03:00am 2.0 -3.5 0.7 91 0.5 N 19 32 10 17 1005.4 1006.4 0.2
25/02:30am 1.7 -4.3 0.8 94 0.4 N 22 32 12 17 1005.3 1006.3 0.2
25/02:00am 1.6 -3.5 0.6 93 0.4 N 17 24 9 13 1005.7 1006.6 0.2
25/01:30am 1.7 -3.4 0.7 93 0.4 N 17 24 9 13 1005.8 1006.7 0.2
25/01:00am 2.2 -2.9 0.9 91 0.5 N 17 24 9 13 1005.8 1006.7 0.2
25/12:30am 2.7 -2.3 1.4 91 0.5 N 17 22 9 12 1005.8 1006.7 0.2
25/12:00am 2.9 -1.7 1.6 91 0.5 NNW 15 22 8 12 1005.8 1006.7 0.2
 
Date/Time
EST
Temp
°C
App
Temp
°C
Dew
Point
°C
Rel
Hum
%
Delta-T
°C
Wind Press
QNH
hPa
Press
MSL
hPa
Rain since
9am
mm
Dir  Spd
km/h
Gust
km/h
Spd
kts
Gust
kts
24/11:30pm 2.7 -2.2 1.8 94 0.4 NNW 17 28 9 15 1005.7 1006.6 0.2
24/11:00pm 2.6 -2.0 1.6 93 0.4 NNW 15 24 8 13 1005.9 1006.8 0.2
24/10:30pm 2.3 -2.3 1.3 93 0.4 NNW 15 24 8 13 1006.2 1007.2 0.2
24/10:00pm 2.2 -2.9 1.0 92 0.5 N 17 22 9 12 1006.4 1007.4 0.2
24/09:30pm 2.1 -3.4 0.9 92 0.5 N 19 24 10 13 1006.8 1007.8 0.2
24/09:00pm 2.4 -2.2 1.5 94 0.4 N 15 20 8 11 1007.5 1008.5 0.2
24/08:30pm 2.6 -2.8 1.4 92 0.5 NNW 19 28 10 15 1007.0 1008.0 0.2
24/08:00pm 2.7 -2.3 1.5 92 0.5 NNW 17 24 9 13 1007.3 1008.2 0.2
24/07:30pm 2.8 -1.8 1.5 91 0.5 N 15 19 8 10 1007.4 1008.3 0.2
24/07:00pm 2.7 -1.1 1.5 92 0.5 NNW 11 19 6 10 1007.5 1008.5 0.2
24/06:30pm 2.6 -1.6 1.6 93 0.4 N 13 17 7 9 1007.7 1008.7 0.2
24/06:00pm 2.7 -1.9 1.5 92 0.5 NNW 15 20 8 11 1007.6 1008.6 0.2
24/05:30pm 3.0 -2.0 1.5 90 0.6 N 17 26 9 14 1007.4 1008.3 0.2
24/05:00pm 3.1 -1.5 1.8 91 0.5 NNW 15 22 8 12 1007.4 1008.3 0.2
24/04:30pm 3.2 -2.3 1.6 89 0.7 N 20 30 11 16 1007.4 1008.3 0.0
24/04:00pm 3.5 -2.1 1.5 87 0.8 NNW 20 30 11 16 1007.3 1008.2 0.0
24/03:30pm 3.6 -1.8 1.3 85 0.9 NNW 19 24 10 13 1007.5 1008.5 0.0
24/03:00pm 3.6 -1.4 1.2 84 1.0 N 17 28 9 15 1007.9 1008.9 0.0
24/02:30pm 3.7 -1.7 1.3 84 1.0 N 19 30 10 16 1008.3 1009.3 0.0
24/02:00pm 3.9 -2.4 1.4 84 1.0 N 24 35 13 19 1008.6 1009.7 0.0
24/01:30pm 4.2 -0.8 1.2 81 1.2 N 17 26 9 14 1008.8 1009.8 0.0
24/01:00pm 4.3 -1.9 -0.1 73 1.7 N 22 32 12 17 1009.3 1010.3 0.0
24/12:30pm 4.2 -1.3 0.4 76 1.5 N 19 26 10 14 1009.8 1010.8 0.0
24/12:00pm 3.9 -1.7 -0.1 75 1.6 N 19 28 10 15 1010.6 1011.6 0.0
24/11:30am 3.9 -1.9 0.1 76 1.5 N 20 28 11 15 1011.1 1012.2 0.0
24/11:00am 4.0 -2.5 0.0 75 1.6 N 24 35 13 19 1011.4 1012.5 0.0
24/10:30am 4.5 -2.1 -0.3 71 1.9 N 24 41 13 22 1011.1 1012.2 0.0
24/10:00am 4.1 -2.0 0.1 75 1.6 N 22 32 12 17 1011.1 1012.2 0.0
24/09:30am 4.0 -1.1 1.0 81 1.2 N 17 24 9 13 1011.1 1012.2 0.0
24/09:00am 3.0 -2.1 0.7 85 0.9 N 17 28 9 15 1011.5 1012.6 0.6
24/08:30am 1.9 -3.3 0.0 87 0.7 N 17 22 9 12 1011.6 1012.7 0.6
24/08:00am 0.9 -4.0 -0.4 91 0.5 N 15 24 8 13 1011.4 1012.5 0.6
24/07:30am 0.1 -4.1 -0.9 93 0.4 NNW 11 17 6 9 1011.1 1012.2 0.6
24/07:00am -0.2 -4.4 -1.2 93 0.4 N 11 15 6 8 1010.8 1011.8 0.6
24/06:30am 0.2 -4.0 -0.9 92 0.4 NNW 11 17 6 9 1010.7 1011.7 0.6
24/06:00am 0.4 -4.2 -0.7 92 0.4 NNW 13 15 7 8 1010.9 1011.9 0.6
24/05:30am 0.1 -4.1 -0.9 93 0.4 NNW 11 15 6 8 1011.0 1012.0 0.6
24/05:00am -0.2 -4.4 -1.0 94 0.3 N 11 15 6 8 1011.1 1012.2 0.6
24/04:30am -0.3 -4.5 -1.1 94 0.3 NNW 11 13 6 7 1011.3 1012.4 0.6
24/04:00am -0.1 -3.9 -0.9 94 0.3 N 9 15 5 8 1011.2 1012.3 0.6
24/03:30am 0.0 -3.8 -0.8 94 0.3 NNW 9 13 5 7 1011.0 1012.0 0.6
24/03:00am -0.1 -4.7 -0.9 94 0.3 NNW 13 15 7 8 1011.2 1012.3 0.6
24/02:30am 0.2 -4.3 -0.6 94 0.3 NNW 13 17 7 9 1011.2 1012.3 0.6
24/02:00am 0.3 -4.6 -0.5 94 0.3 NNW 15 19 8 10 1011.4 1012.5 0.6
24/01:30am 0.5 -3.6 -0.4 94 0.3 NNW 11 17 6 9 1011.4 1012.5 0.6
24/01:00am 1.0 -3.5 -0.3 91 0.5 N 13 17 7 9 1011.3 1012.4 0.6
24/12:30am 1.4 -2.7 -0.1 90 0.6 NNE 11 17 6 9 1011.4 1012.5 0.6
24/12:00am 1.4 -2.7 -0.1 90 0.6 NNE 11 15 6 8 1011.5 1012.6 0.6
 
Date/Time
EST
Temp
°C
App
Temp
°C
Dew
Point
°C
Rel
Hum
%
Delta-T
°C
Wind Press
QNH
hPa
Press
MSL
hPa
Rain since
9am
mm
Dir  Spd
km/h
Gust
km/h
Spd
kts
Gust
kts
23/11:30pm 1.5 -2.6 -0.3 88 0.7 N 11 15 6 8 1011.6 1012.7 0.6
23/11:00pm 2.0 -2.5 -0.2 85 0.8 N 13 20 7 11 1011.3 1012.4 0.6
23/10:30pm 2.2 -2.7 -0.2 84 0.9 N 15 20 8 11 1011.2 1012.3 0.6
23/10:00pm 2.5 -1.9 0.1 84 0.9 N 13 20 7 11 1011.0 1012.0 0.6
23/09:30pm 2.4 -2.1 0.0 84 0.9 N 13 19 7 10 1010.7 1011.7 0.6
23/09:00pm 2.8 -1.7 0.0 82 1.1 NNW 13 20 7 11 1010.5 1011.5 0.6
23/08:30pm 2.5 -1.9 0.1 84 0.9 N 13 20 7 11 1010.0 1011.1 0.6
23/08:00pm 2.9 -2.7 0.0 81 1.1 N 19 26 10 14 1009.6 1010.6 0.6
23/07:30pm 3.7 -1.7 -1.3 70 1.9 NNW 17 24 9 13 1009.2 1010.2 0.6
23/07:00pm 4.2 -1.0 -2.4 62 2.5 NW 15 22 8 12 1008.9 1009.9 0.6
23/06:30pm 4.5 -1.4 -2.6 60 2.6 NW 19 28 10 15 1008.2 1009.2 0.6
23/06:00pm 4.7 -1.4 -3.6 55 3.0 NNW 19 28 10 15 1007.6 1008.6 0.6
23/05:30pm 4.6 -1.4 -3.2 57 2.9 NNW 19 30 10 16 1007.1 1008.1 0.6
23/05:00pm 5.0 -1.3 -3.8 53 3.2 NW 20 28 11 15 1006.8 1007.8 0.6
23/04:30pm 5.3 -0.9 -3.0 55 3.1 WNW 20 35 11 19 1006.5 1007.5 0.6
23/04:00pm 5.3 -0.8 -3.5 53 3.2 WNW 19 32 10 17 1006.2 1007.2 0.6
23/03:30pm 6.0 -0.3 -3.6 50 3.5 NW 20 35 11 19 1005.7 1006.6 0.6
23/03:00pm 6.1 0.0 -3.8 49 3.7 WNW 19 33 10 18 1004.9 1005.8 0.6
23/02:30pm 6.4 -0.3 -4.4 46 3.9 WNW 22 39 12 21 1004.4 1005.3 0.6
23/02:25pm 6.6 -1.2 -3.6 48 3.8 WNW 28 46 15 25 1004.3 1005.2 0.6
23/02:00pm 6.3 -0.3 -3.6 49 3.7 WNW 22 33 12 18 1003.9 1004.9 0.6
23/01:30pm 7.1 -0.7 -3.7 46 4.0 WNW 28 48 15 26 1003.8 1004.8 0.6
23/01:25pm 6.3 -1.7 -5.6 42 4.2 WNW 28 48 15 26 1003.6 1004.5 0.6
23/01:00pm 7.3 1.7 -2.7 49 3.8 WNW 17 32 9 17 1003.4 1004.3 0.6
23/12:36pm 6.8 -1.1 -4.6 44 4.1 W 28 46 15 25 1003.1 1004.0 0.6
23/12:30pm 6.6 -0.6 -5.1 43 4.2 WNW 24 44 13 24 1003.1 1004.0 0.6
23/12:12pm 6.6 -1.7 -4.8 44 4.1 WNW 30 48 16 26 1002.7 1003.6 0.6
23/12:00pm 6.5 -1.0 -4.9 44 4.1 WNW 26 44 14 24 1002.7 1003.6 0.6
23/11:30am 5.8 0.9 -0.5 64 2.5 WNW 15 30 8 16 1002.3 1003.2 0.6
23/11:00am 4.5 -0.8 1.9 83 1.1 WSW 19 37 10 20 1002.1 1003.0 0.2
23/10:30am 7.1 1.5 0.1 61 2.9 W 19 30 10 16 1001.1 1001.9 0.0
23/10:00am 7.0 3.6 1.9 70 2.2 NNW 9 19 5 10 1000.2 1001.1 0.0
23/09:30am 6.2 1.9 3.0 80 1.4 NNW 15 22 8 12 999.8 1000.6 0.0
23/09:00am 4.0 -1.4 2.2 88 0.8 N 20 26 11 14 999.6 1000.4 16.6
23/08:30am 4.0 -0.9 1.7 85 0.9 NNW 17 26 9 14 999.0 999.9 16.6
23/08:00am 3.6 -1.8 1.5 86 0.9 N 19 26 10 14 998.7 999.5 16.6
23/07:30am 3.9 -1.1 1.1 82 1.1 NNW 17 24 9 13 998.1 998.9 16.6
23/07:00am 4.0 -1.6 1.2 82 1.1 NNW 20 26 11 14 997.2 998.0 16.6
23/06:30am 4.4 -1.1 0.9 78 1.4 NNW 19 24 10 13 996.3 997.2 16.6
23/06:00am 4.7 -1.3 1.0 77 1.5 NW 22 30 12 16 995.5 996.3 16.6
23/05:30am 4.5 -1.0 0.8 77 1.5 NNW 19 28 10 15 995.0 995.7 16.6
23/05:00am 5.1 -0.9 0.9 74 1.7 NW 22 32 12 17 994.6 995.4 16.6
23/04:30am 5.2 -0.4 1.0 74 1.7 NW 20 33 11 18 993.9 994.7 16.6
23/04:00am 4.9 -0.6 1.6 79 1.4 NNW 20 30 11 16 993.8 994.5 16.6
23/03:30am 4.8 -0.4 2.2 83 1.1 NW 19 28 10 15 993.7 994.4 16.6
23/03:00am 5.0 -0.8 2.2 82 1.2 NNW 22 33 12 18 993.5 994.2 16.6
23/02:30am 5.9 0.8 3.1 82 1.2 NW 19 32 10 17 993.4 994.1 15.2
23/02:00am 5.3 2.6 3.6 89 0.8 NNW 7 13 4 7 992.7 993.5 15.0
23/01:30am 5.3 1.8 3.5 88 0.8 WNW 11 17 6 9 993.2 994.0 14.8
23/01:00am 6.6 2.5 4.1 84 1.1 NNW 15 20 8 11 993.2 994.0 12.4
23/12:30am 6.5 1.0 4.2 85 1.0 N 22 35 12 19 992.7 993.5 12.4
23/12:00am 6.4 3.6 5.2 92 0.6 NW 9 11 5 6 993.8 994.5 12.4
 
Date/Time
EST
Temp
°C
App
Temp
°C
Dew
Point
°C
Rel
Hum
%
Delta-T
°C
Wind Press
QNH
hPa
Press
MSL
hPa
Rain since
9am
mm
Dir  Spd
km/h
Gust
km/h
Spd
kts
Gust
kts
22/11:30pm 6.5 3.7 5.1 91 0.6 NW 9 15 5 8 994.2 995.0 12.0
22/11:00pm 6.8 3.6 5.0 88 0.8 NW 11 15 6 8 994.7 995.5 11.2
22/10:30pm 6.9 2.9 4.7 86 1.0 WNW 15 22 8 12 995.2 996.0 10.0
22/10:00pm 9.2 3.3 3.8 69 2.5 NW 24 39 13 21 995.1 995.8 8.0
22/09:30pm 9.8 4.1 3.1 63 3.0 NNW 22 30 12 16 995.0 995.7 8.0
22/09:00pm 9.7 4.9 2.6 61 3.2 NW 17 28 9 15 995.2 996.0 8.0
22/08:30pm 9.1 4.8 3.1 66 2.7 NW 15 22 8 12 995.7 996.5 8.0
22/08:00pm 9.0 3.9 3.2 67 2.6 NW 19 35 10 19 995.8 996.6 8.0
22/07:30pm 8.6 3.9 3.4 70 2.3 NNW 17 28 9 15 996.2 997.0 8.0
22/07:00pm 8.4 4.4 3.1 69 2.4 NNW 13 19 7 10 996.8 997.6 8.0
22/06:30pm 7.8 4.9 2.7 70 2.2 N 7 13 4 7 996.7 997.5 8.0
22/06:00pm 8.8 5.5 2.6 65 2.8 NNW 9 13 5 7 996.6 997.4 8.0
22/05:30pm 9.9 5.8 2.3 59 3.4 NW 13 20 7 11 996.5 997.3 8.0
22/05:00pm 10.6 6.2 2.7 58 3.6 WNW 15 24 8 13 995.9 996.7 8.0
22/04:30pm 11.3 7.0 3.1 57 3.7 WNW 15 28 8 15 996.0 996.8 8.0
22/04:00pm 12.8 5.3 3.2 52 4.5 NW 32 56 17 30 995.2 996.0 8.0
22/03:48pm 13.1 7.4 5.0 58 3.9 NW 24 54 13 29 995.1 995.8 8.0
22/03:30pm 11.3 7.6 7.8 79 1.8 NNW 17 24 9 13 995.6 996.4 8.0
22/03:00pm 10.6 7.2 7.8 83 1.4 NW 15 28 8 15 995.8 996.6 7.8
22/02:30pm 11.2 7.7 7.3 77 1.9 NW 15 32 8 17 996.6 997.4 7.2

Other Formats:

Comma delimited format used in spreadsheet applications
http://www.bom.gov.au/fwo/IDV60801/IDV60801.94908.axf

JavaScript Object Notation format (JSON) in row-major order
http://www.bom.gov.au/fwo/IDV60801/IDV60801.94908.json